Time;durP1;ratioP1;P1;durP2;ratioP2;P2;SDS_P1;SDS_P2;PMS_P1;PMS_P2;Temp;Humidity;BMP_temperature;BMP_pressure;BME280_temperature;BME280_humidity;BME280_pressure;Samples;Min_cycle;Max_cycle;Signal;HPM_P1;HPM_P2
2021/12/25 00:01:05;;;;;;;12.95;5.43;;;;;;;9.61;60.39;97474.88;4473221;32;20427;-86
2021/12/25 00:03:30;;;;;;;14.50;5.78;;;;;;;9.59;60.69;97474.16;4487127;32;20127;-86
2021/12/25 00:05:56;;;;;;;13.43;5.90;;;;;;;9.64;60.25;97479.91;4472975;32;20093;-86
2021/12/25 00:08:26;;;;;;;13.02;5.75;;;;;;;9.68;60.11;97484.94;4487145;32;20432;-86
2021/12/25 00:10:52;;;;;;;12.35;4.95;;;;;;;9.74;59.89;97466.12;4487050;32;20341;-86
2021/12/25 00:13:19;;;;;;;12.57;4.90;;;;;;;9.83;59.38;97487.34;4485956;32;20122;-86
2021/12/25 00:15:45;;;;;;;11.50;4.00;;;;;;;9.79;59.31;97474.50;4486139;32;20134;-86
2021/12/25 00:18:10;;;;;;;12.60;4.75;;;;;;;9.71;59.46;97469.78;4487096;32;20473;-86
2021/12/25 00:20:36;;;;;;;12.43;5.12;;;;;;;9.81;59.07;97483.97;4487083;32;20107;-86
2021/12/25 00:23:05;;;;;;;11.82;4.70;;;;;;;9.95;58.86;97482.97;4472680;32;20172;-86
2021/12/25 00:25:34;;;;;;;10.70;4.22;;;;;;;9.96;58.90;97468.00;4487023;32;20104;-86
2021/12/25 00:28:16;;;;;;;11.70;4.18;;;;;;;9.96;58.79;97474.09;4487006;32;20119;-86
2021/12/25 00:30:57;;;;;;;13.02;4.45;;;;;;;9.95;58.57;97485.59;4487098;32;20116;-86
2021/12/25 00:33:36;;;;;;;12.18;4.43;;;;;;;10.08;58.19;97482.06;4486964;32;20109;-85
2021/12/25 00:36:02;;;;;;;10.93;4.00;;;;;;;10.03;58.15;97488.50;4486946;32;20609;-86
2021/12/25 00:38:28;;;;;;;15.90;4.75;;;;;;;10.05;58.15;97488.41;4472549;32;20198;-87
2021/12/25 00:40:53;;;;;;;12.35;4.10;;;;;;;10.20;57.54;97482.00;4486543;32;20363;-86
2021/12/25 00:43:19;;;;;;;11.52;4.40;;;;;;;10.05;57.87;97488.41;4486912;32;20111;-86
2021/12/25 00:45:44;;;;;;;10.90;3.72;;;;;;;10.19;57.46;97497.91;4486794;32;20118;-87
2021/12/25 00:48:09;;;;;;;9.30;3.42;;;;;;;10.24;57.49;97493.16;4486808;32;20081;-86
2021/12/25 00:50:35;;;;;;;10.18;3.37;;;;;;;10.01;57.74;97500.09;4472474;32;20360;-86
2021/12/25 00:53:00;;;;;;;10.43;3.87;;;;;;;10.27;57.00;97492.06;4472454;32;20164;-86
2021/12/25 00:55:26;;;;;;;10.63;3.80;;;;;;;10.22;56.81;97489.78;4459540;32;20095;-86
2021/12/25 00:57:52;;;;;;;11.15;3.50;;;;;;;10.19;56.98;97496.09;4486643;32;20084;-86
2021/12/25 01:00:19;;;;;;;11.52;3.80;;;;;;;10.24;56.62;97503.69;4485618;32;20455;-86
2021/12/25 01:02:46;;;;;;;11.23;3.78;;;;;;;10.03;57.25;97495.56;4485318;32;20144;-86
2021/12/25 01:05:12;;;;;;;10.50;3.90;;;;;;;10.13;56.97;97506.25;4486882;32;20083;-86
2021/12/25 01:07:38;;;;;;;10.38;3.80;;;;;;;10.12;56.96;97509.81;4459263;32;20697;-86
2021/12/25 01:10:07;;;;;;;11.12;3.70;;;;;;;10.26;56.44;97508.81;4486650;32;20080;-86
2021/12/25 01:12:45;;;;;;;10.23;3.80;;;;;;;10.36;56.27;97499.31;4459621;32;20423;-86
2021/12/25 01:15:11;;;;;;;10.48;3.62;;;;;;;10.24;56.60;97514.19;4485356;32;20477;-86
2021/12/25 01:30:47;;;;;;;12.18;4.03;;;;;;;10.34;56.28;97524.94;4485348;32;20145;-86
2021/12/25 01:33:47;;;;;;;12.00;4.28;;;;;;;10.56;55.52;97540.78;4471850;32;20131;-86
2021/12/25 01:36:47;;;;;;;13.52;4.97;;;;;;;10.51;56.04;97535.03;4485735;32;20413;-86
2021/12/25 01:39:16;;;;;;;12.95;4.70;;;;;;;10.38;56.34;97543.00;4484299;32;20123;-86
2021/12/25 01:47:46;;;;;;;13.35;4.80;;;;;;;10.48;57.05;97543.16;4473975;32;20134;-86
2021/12/25 01:49:56;;;;;;;11.50;3.78;;;;;;;10.43;57.01;97542.69;4475331;32;20482;-86
2021/12/25 01:52:26;;;;;;;10.93;4.18;;;;;;;10.36;57.00;97541.44;4485877;32;20268;-86
2021/12/25 01:55:00;;;;;;;9.85;3.35;;;;;;;10.29;57.30;97535.75;4484688;32;20135;-86
2021/12/25 01:57:28;;;;;;;10.65;3.95;;;;;;;10.28;56.91;97534.06;4472135;32;20741;-86
2021/12/25 01:59:53;;;;;;;10.52;3.58;;;;;;;10.29;56.73;97534.91;4485638;32;20119;-86
2021/12/25 02:02:19;;;;;;;12.23;3.97;;;;;;;10.35;56.38;97530.09;4485735;32;20104;-86
2021/12/25 02:04:44;;;;;;;10.02;3.33;;;;;;;10.17;56.90;97534.03;4485979;32;20093;-86
2021/12/25 02:07:10;;;;;;;9.60;3.60;;;;;;;10.06;57.32;97533.97;4485943;32;20089;-86
2021/12/25 02:09:35;;;;;;;10.00;3.30;;;;;;;10.26;56.76;97540.38;4485881;32;20107;-85
2021/12/25 02:12:01;;;;;;;10.30;3.72;;;;;;;10.12;56.92;97542.25;4487385;32;20088;-86
2021/12/25 02:14:28;;;;;;;11.00;3.65;;;;;;;10.25;56.71;97539.56;4488193;32;20120;-86
2021/12/25 02:17:00;;;;;;;10.23;3.78;;;;;;;10.22;56.99;97542.44;4488162;32;20484;-86
2021/12/25 02:19:42;;;;;;;12.25;3.87;;;;;;;10.31;56.88;97539.13;4487042;32;20158;-86
2021/12/25 02:22:09;;;;;;;11.32;4.40;;;;;;;10.27;56.77;97540.28;4488180;32;20378;-85
2021/12/25 02:24:36;;;;;;;12.00;4.30;;;;;;;10.29;56.61;97534.91;4488115;32;20167;-86
2021/12/25 02:27:03;;;;;;;12.50;4.53;;;;;;;10.31;56.60;97546.19;4473436;32;20524;-86
2021/12/25 02:29:28;;;;;;;9.93;3.80;;;;;;;10.27;56.83;97536.81;4486592;32;20463;-86
2021/12/25 02:31:54;;;;;;;9.50;3.78;;;;;;;10.33;56.79;97529.31;4487770;32;20144;-86
2021/12/25 02:34:20;;;;;;;10.95;4.12;;;;;;;10.30;56.88;97526.06;4487830;32;20093;-86
2021/12/25 02:36:45;;;;;;;12.68;4.05;;;;;;;10.17;56.99;97524.31;4487770;32;20122;-86
2021/12/25 02:39:11;;;;;;;11.85;4.30;;;;;;;10.44;56.35;97536.44;4487637;32;20144;-86
2021/12/25 02:41:36;;;;;;;13.65;5.20;;;;;;;10.52;56.24;97541.97;4460143;32;20116;-86
2021/12/25 02:44:02;;;;;;;10.52;3.53;;;;;;;10.41;56.51;97532.25;4486527;32;20096;-86
2021/12/25 02:46:27;;;;;;;11.50;4.40;;;;;;;10.22;57.02;97534.53;4487628;32;20131;-86
2021/12/25 02:48:56;;;;;;;13.70;4.80;;;;;;;10.43;56.48;97534.78;4487615;32;20103;-86
2021/12/25 02:51:21;;;;;;;10.98;4.37;;;;;;;10.47;56.24;97530.09;4487674;32;20450;-86
2021/12/25 02:53:46;;;;;;;10.65;4.10;;;;;;;10.45;56.36;97532.88;4473270;32;20148;-86
2021/12/25 02:56:12;;;;;;;11.27;3.95;;;;;;;10.09;57.12;97539.00;4487486;32;20116;-86
2021/12/25 02:58:37;;;;;;;10.07;3.45;;;;;;;10.37;56.59;97535.22;4487636;32;20128;-86
2021/12/25 03:01:10;;;;;;;13.10;4.70;;;;;;;10.37;56.33;97535.22;4487443;32;20076;-86
2021/12/25 03:03:35;;;;;;;10.38;3.90;;;;;;;10.45;56.44;97542.53;4487717;32;20092;-86
2021/12/25 03:06:02;;;;;;;10.90;4.25;;;;;;;10.45;56.22;97534.66;4487584;32;20118;-86
2021/12/25 03:08:28;;;;;;;11.32;4.57;;;;;;;10.41;56.38;97531.41;4487640;32;20089;-86
2021/12/25 03:10:54;;;;;;;10.40;4.18;;;;;;;10.52;56.31;97526.19;4473281;32;20098;-86
2021/12/25 03:13:35;;;;;;;12.20;3.90;;;;;;;10.46;56.38;97533.72;4487501;32;20096;-86
2021/12/25 03:16:03;;;;;;;10.15;3.50;;;;;;;10.45;56.25;97529.38;4486643;32;20471;-86
2021/12/25 03:18:32;;;;;;;10.35;3.72;;;;;;;10.53;55.96;97530.50;4487401;32;20159;-86
2021/12/25 03:21:05;;;;;;;10.88;3.58;;;;;;;10.46;56.02;97534.53;4487420;32;20080;-85
2021/12/25 03:23:32;;;;;;;11.05;3.92;;;;;;;10.41;56.32;97536.66;4485598;32;20494;-86
2021/12/25 03:25:59;;;;;;;9.80;3.15;;;;;;;10.36;56.38;97530.91;4473042;32;20143;-86
2021/12/25 03:28:29;;;;;;;10.32;3.45;;;;;;;10.45;56.17;97522.34;4487385;32;20151;-86
2021/12/25 03:30:59;;;;;;;10.57;3.45;;;;;;;10.35;56.43;97523.97;4486554;32;20067;-86
2021/12/25 03:33:25;;;;;;;9.95;3.15;;;;;;;10.35;56.53;97526.59;4487699;32;20108;-86
2021/12/25 03:35:50;;;;;;;10.05;3.20;;;;;;;10.41;56.40;97523.50;4473183;32;20450;-86
2021/12/25 03:38:20;;;;;;;9.40;3.40;;;;;;;10.23;56.78;97538.81;4487432;32;20084;-86
2021/12/25 03:40:49;;;;;;;10.43;3.30;;;;;;;10.25;56.92;97534.28;4485863;32;20136;-86
2021/12/25 03:43:15;;;;;;;10.27;3.08;;;;;;;10.26;56.75;97536.00;4487359;32;20493;-86
2021/12/25 03:45:41;;;;;;;8.90;3.03;;;;;;;10.10;57.31;97544.16;4486151;32;20076;-86
2021/12/25 03:58:46;;;;;;;9.13;2.95;;;;;;;10.32;57.13;97555.78;4453677;32;20452;-86
2021/12/25 04:01:43;;;;;;;8.65;2.92;;;;;;;10.29;57.18;97548.06;4440610;32;20096;-86
2021/12/25 04:09:28;;;;;;;10.68;2.92;;;;;;;10.59;56.58;97561.63;4453688;32;20484;-86
2021/12/25 04:11:56;;;;;;;9.38;3.05;;;;;;;10.31;57.52;97560.19;4440619;32;20107;-86
2021/12/25 04:14:21;;;;;;;;;;;;;;;10.22;57.99;97563.50;4453990;32;20135;-86
2021/12/25 04:16:47;;;;;;;11.02;3.17;;;;;;;10.26;58.02;97564.94;4453632;32;20685;-86
2021/12/25 04:19:13;;;;;;;8.82;3.00;;;;;;;10.42;57.81;97562.87;4453590;32;20457;-85
2021/12/25 04:21:47;;;;;;;10.05;3.15;;;;;;;10.49;57.89;97551.88;4453396;32;20437;-86
2021/12/25 04:24:12;;;;;;;10.48;3.20;;;;;;;10.65;57.92;97555.09;4453749;32;20139;-86
2021/12/25 04:26:40;;;;;;;12.30;3.37;;;;;;;10.17;59.26;97566.44;4440490;32;20129;-86
2021/12/25 04:29:20;;;;;;;;;;;;;;;10.26;59.06;97564.94;4453823;32;20105;-86
2021/12/25 04:33:00;;;;;;;10.77;3.85;;;;;;;10.52;58.56;97568.31;4453649;32;20394;-86
2021/12/25 05:04:28;;;;;;;14.45;5.62;;;;;;;10.15;59.83;97565.69;4437770;32;20513;-86
2021/12/25 05:06:54;;;;;;;14.13;5.18;;;;;;;10.18;59.57;97564.66;4426310;32;20105;-86
2021/12/25 05:09:19;;;;;;;13.88;5.90;;;;;;;10.06;59.67;97562.91;4437552;32;20105;-85
2021/12/25 05:11:45;;;;;;;14.32;5.50;;;;;;;10.14;59.45;97566.66;4437617;32;20160;-86
2021/12/25 05:14:11;;;;;;;12.65;5.40;;;;;;;10.13;59.41;97572.03;4424528;32;20449;-86
2021/12/25 05:16:36;;;;;;;12.88;5.18;;;;;;;10.15;59.29;97563.06;4437411;32;20149;-86
2021/12/25 05:19:02;;;;;;;15.18;5.60;;;;;;;10.16;59.32;97561.28;4437355;32;20125;-86
2021/12/25 05:21:27;;;;;;;15.88;6.50;;;;;;;10.18;59.28;97562.87;4424638;32;20124;-86
2021/12/25 05:23:53;;;;;;;15.00;5.57;;;;;;;10.09;59.43;97563.53;4424558;32;20129;-86
2021/12/25 05:26:18;;;;;;;14.23;5.70;;;;;;;9.97;59.96;97569.69;4424490;32;20237;-86
2021/12/25 05:28:46;;;;;;;14.40;6.43;;;;;;;9.95;59.94;97582.94;4437282;32;20472;-86
2021/12/25 05:31:14;;;;;;;13.50;5.50;;;;;;;9.96;59.84;97581.12;4424664;32;20196;-86
2021/12/25 05:33:41;;;;;;;12.77;5.85;;;;;;;9.93;59.92;97587.47;4451458;32;20106;-86
2021/12/25 05:36:07;;;;;;;14.07;5.85;;;;;;;9.93;59.94;97576.09;4486171;32;20100;-86
2021/12/25 05:38:34;;;;;;;13.25;5.57;;;;;;;9.73;60.53;97573.06;4486173;32;20080;-86
2021/12/25 05:41:00;;;;;;;15.65;5.57;;;;;;;9.71;60.73;97582.88;4484931;32;20120;-86
2021/12/25 05:43:25;;;;;;;16.42;5.45;;;;;;;9.65;60.99;97588.56;4486427;32;20093;-86
2021/12/25 05:45:51;;;;;;;12.90;5.03;;;;;;;9.55;61.12;97583.09;4486626;32;20108;-86
2021/12/25 05:48:17;;;;;;;12.52;4.45;;;;;;;9.52;61.23;97575.44;4488352;32;20088;-86
2021/12/25 05:50:42;;;;;;;12.25;4.85;;;;;;;9.58;60.95;97582.03;4473822;32;20145;-86
2021/12/25 05:53:08;;;;;;;11.18;4.28;;;;;;;9.69;60.45;97578.69;4488088;32;20120;-86
2021/12/25 05:55:33;;;;;;;11.35;4.68;;;;;;;9.46;61.12;97581.12;4486911;32;20104;-85
2021/12/25 05:58:00;;;;;;;13.95;4.55;;;;;;;9.48;60.89;97576.59;4488056;32;20371;-86
2021/12/25 06:00:26;;;;;;;10.25;3.85;;;;;;;9.45;61.05;97585.53;4473850;32;20184;-86
2021/12/25 06:02:52;;;;;;;10.18;3.37;;;;;;;9.58;60.71;97571.53;4486947;32;20484;-86
2021/12/25 06:05:18;;;;;;;10.93;3.10;;;;;;;9.50;61.08;97569.44;4473668;32;20104;-85
2021/12/25 06:07:44;;;;;;;9.90;2.92;;;;;;;9.60;60.78;97573.12;4488120;32;20145;-86
2021/12/25 06:10:10;;;;;;;8.73;2.75;;;;;;;9.64;60.70;97574.59;4473800;32;20382;-85
2021/12/25 06:12:42;;;;;;;7.45;2.50;;;;;;;9.65;60.67;97560.47;4473782;32;20081;-86
2021/12/25 06:15:09;;;;;;;9.63;2.87;;;;;;;9.55;61.56;97580.47;4486788;32;20165;-86
2021/12/25 06:17:35;;;;;;;8.20;2.40;;;;;;;9.50;62.05;97594.88;4487923;32;20104;-86
2021/12/25 06:20:00;;;;;;;8.50;2.62;;;;;;;9.58;61.88;97590.78;4487904;32;20092;-87
2021/12/25 06:22:25;;;;;;;9.02;2.58;;;;;;;9.67;61.61;97593.72;4487921;32;20089;-86
2021/12/25 06:24:51;;;;;;;8.02;2.15;;;;;;;9.57;62.14;97598.78;4487886;32;20452;-86
2021/12/25 06:27:17;;;;;;;7.07;2.40;;;;;;;9.72;61.78;97596.88;4487940;32;20088;-85
2021/12/25 06:29:43;;;;;;;9.65;2.72;;;;;;;9.79;61.73;97603.38;4487782;32;20126;-86
2021/12/25 06:32:09;;;;;;;7.80;2.60;;;;;;;9.81;61.44;97607.59;4487903;32;20100;-86
2021/12/25 06:34:35;;;;;;;7.68;2.37;;;;;;;9.84;61.42;97620.50;4487752;32;20440;-86
2021/12/25 06:37:00;;;;;;;8.18;2.75;;;;;;;9.90;61.20;97615.78;4473461;32;20119;-86
2021/12/25 06:39:26;;;;;;;8.15;2.60;;;;;;;9.98;61.01;97622.16;4473564;32;20073;-86
2021/12/25 06:41:51;;;;;;;7.30;2.25;;;;;;;10.07;60.91;97623.31;4486970;32;20360;-86
2021/12/25 06:44:17;;;;;;;6.90;2.28;;;;;;;10.06;61.03;97616.34;4487929;32;20123;-86
2021/12/25 06:46:44;;;;;;;9.15;2.58;;;;;;;10.11;60.95;97621.31;4488104;32;20118;-86
2021/12/25 06:49:09;;;;;;;8.10;2.62;;;;;;;10.16;60.79;97624.44;4488114;32;20111;-85
2021/12/25 06:51:35;;;;;;;10.25;3.30;;;;;;;10.21;60.57;97638.13;4473664;32;20096;-86
2021/12/25 06:54:02;;;;;;;9.25;2.87;;;;;;;10.23;60.49;97626.50;4473730;32;20380;-86
2021/12/25 06:56:28;;;;;;;8.25;2.97;;;;;;;10.26;60.31;97629.87;4487977;32;20675;-86
2021/12/25 06:58:53;;;;;;;9.00;2.80;;;;;;;10.35;60.10;97638.00;4486993;32;20104;-86
2021/12/25 07:01:18;;;;;;;7.55;2.40;;;;;;;10.34;60.07;97643.38;4487830;32;20077;-86
2021/12/25 07:03:44;;;;;;;8.13;2.83;;;;;;;10.34;60.14;97643.38;4487738;32;20153;-86
2021/12/25 07:06:10;;;;;;;8.80;2.85;;;;;;;10.34;60.27;97651.28;4486705;32;20496;-86
2021/12/25 07:08:35;;;;;;;9.57;3.20;;;;;;;10.44;60.03;97644.41;4487827;32;20109;-86
2021/12/25 07:11:01;;;;;;;8.25;3.03;;;;;;;10.41;60.12;97645.47;4473425;32;20133;-86
2021/12/25 07:13:26;;;;;;;7.53;2.47;;;;;;;10.49;59.91;97646.69;4487768;32;20096;-86
2021/12/25 07:15:52;;;;;;;7.60;2.75;;;;;;;10.57;59.71;97653.09;4487847;32;20084;-86
2021/12/25 07:18:17;;;;;;;8.25;2.80;;;;;;;10.62;59.62;97650.09;4473554;32;20146;-86
2021/12/25 07:20:45;;;;;;;8.95;2.67;;;;;;;10.65;59.56;97644.63;4487585;32;20096;-86
2021/12/25 07:23:11;;;;;;;;;;;;;;;10.70;59.48;97642.50;4488147;32;20101;-86
2021/12/25 07:25:36;;;;;;;6.85;2.08;;;;;;;10.79;59.37;97652.34;4487852;32;19975;-86
2021/12/25 07:28:02;;;;;;;8.50;2.20;;;;;;;10.80;59.50;97656.66;4473056;32;20498;-86
2021/12/25 07:30:28;;;;;;;9.55;2.42;;;;;;;10.79;59.51;97656.78;4487496;32;20158;-86
2021/12/25 07:32:53;;;;;;;8.02;2.35;;;;;;;10.81;59.45;97658.34;4485961;32;20100;-86
2021/12/25 07:35:19;;;;;;;7.40;2.20;;;;;;;10.87;59.40;97659.69;4487403;32;20454;-86
2021/12/25 07:37:44;;;;;;;9.80;2.62;;;;;;;10.80;59.77;97655.84;4472935;32;20068;-86
2021/12/25 07:40:10;;;;;;;8.30;2.78;;;;;;;10.87;59.53;97656.22;4487036;32;20329;-86
2021/12/25 07:42:36;;;;;;;9.70;2.58;;;;;;;10.86;59.45;97665.09;4487533;32;20150;-86
2021/12/25 07:45:05;;;;;;;9.38;2.85;;;;;;;10.94;59.19;97668.81;4487391;32;20113;-86
2021/12/25 07:47:32;;;;;;;8.05;2.55;;;;;;;10.82;59.47;97665.31;4487133;32;20158;-86
2021/12/25 07:49:59;;;;;;;10.27;2.85;;;;;;;10.89;59.23;97664.84;4487260;32;20163;-86
2021/12/25 07:52:26;;;;;;;7.90;2.83;;;;;;;11.00;58.94;97663.09;4487502;32;20092;-86
2021/12/25 07:54:51;;;;;;;8.57;2.50;;;;;;;10.93;59.26;97664.53;4473173;32;20596;-85
2021/12/25 07:57:16;;;;;;;8.77;2.65;;;;;;;11.06;58.84;97661.78;4473201;32;20100;-85
2021/12/25 07:59:42;;;;;;;8.52;2.60;;;;;;;11.10;58.77;97670.31;4487397;32;20105;-86
2021/12/25 08:02:08;;;;;;;7.57;2.40;;;;;;;11.08;58.73;97664.31;4473191;32;20163;-86
2021/12/25 08:04:33;;;;;;;9.98;2.60;;;;;;;11.18;58.31;97662.66;4487473;32;20088;-86
2021/12/25 08:06:59;;;;;;;9.38;2.60;;;;;;;11.24;58.12;97664.84;4487397;32;20333;-86
2021/12/25 08:09:31;;;;;;;7.90;2.37;;;;;;;11.32;57.92;97659.84;4472888;32;20444;-85
2021/12/25 08:12:01;;;;;;;11.55;2.83;;;;;;;11.38;57.81;97659.38;4487486;32;20530;-86
2021/12/25 08:14:28;;;;;;;8.55;2.95;;;;;;;11.46;57.62;97650.88;4487196;32;20126;-85
2021/12/25 08:16:57;;;;;;;10.70;3.20;;;;;;;11.50;57.36;97657.59;4485873;32;20608;-86
2021/12/25 08:19:23;;;;;;;10.23;3.75;;;;;;;11.48;56.99;97659.53;4472839;32;20501;-85
2021/12/25 08:21:49;;;;;;;10.52;4.18;;;;;;;11.45;56.99;97672.94;4490284;32;20080;-85
2021/12/25 08:24:17;;;;;;;10.93;4.22;;;;;;;11.51;56.85;97666.34;4473566;32;20491;-85
2021/12/25 08:26:44;;;;;;;12.93;4.10;;;;;;;11.51;56.60;97677.75;4487180;32;20107;-85
2021/12/25 08:29:09;;;;;;;12.05;4.28;;;;;;;11.46;56.56;97674.63;4485819;32;20126;-85
2021/12/25 08:31:35;;;;;;;11.27;4.00;;;;;;;11.35;56.95;97678.06;4486886;32;20139;-85
2021/12/25 08:34:01;;;;;;;10.88;3.72;;;;;;;11.35;57.13;97672.78;4485829;32;20118;-85
2021/12/25 08:36:26;;;;;;;10.60;3.92;;;;;;;11.36;57.41;97677.13;4472796;32;20084;-85
2021/12/25 08:38:52;;;;;;;11.82;4.18;;;;;;;11.42;57.26;97673.19;4486821;32;20073;-85
2021/12/25 08:41:20;;;;;;;10.52;3.97;;;;;;;11.43;57.36;97663.47;4472493;32;20135;-85
2021/12/25 08:43:47;;;;;;;10.73;4.82;;;;;;;11.48;57.24;97651.59;4485735;32;20127;-85
2021/12/25 08:46:41;;;;;;;10.35;4.03;;;;;;;11.54;57.11;97653.78;4486781;32;20144;-86
2021/12/25 08:49:03;;;;;;;12.20;4.12;;;;;;;11.55;56.99;97655.47;4486743;32;20479;-85
2021/12/25 08:51:28;;;;;;;10.80;3.95;;;;;;;11.58;56.80;97643.81;4472783;32;20105;-86
2021/12/25 08:53:53;;;;;;;10.00;3.40;;;;;;;11.57;56.75;97650.91;4472762;32;20374;-86
2021/12/25 08:56:19;;;;;;;9.30;3.80;;;;;;;11.63;56.59;97643.47;4486925;32;20108;-85
2021/12/25 08:58:44;;;;;;;9.68;3.70;;;;;;;11.68;56.13;97646.59;4486912;32;20113;-86
2021/12/25 09:01:11;;;;;;;8.63;3.25;;;;;;;11.63;56.10;97636.41;4486827;32;20175;-86
2021/12/25 09:03:37;;;;;;;9.77;3.30;;;;;;;11.68;56.03;97639.50;4472900;32;20123;-85
2021/12/25 09:06:03;;;;;;;9.85;3.60;;;;;;;11.71;55.86;97634.00;4486890;32;20104;-85
2021/12/25 09:08:30;;;;;;;10.55;3.92;;;;;;;11.76;55.94;97644.19;4485552;32;20141;-85
2021/12/25 09:10:56;;;;;;;10.97;3.73;;;;;;;11.86;55.86;97650.47;4486490;32;20108;-86
2021/12/25 09:13:22;;;;;;;11.25;3.90;;;;;;;11.87;55.56;97652.13;4472306;32;20100;-85
2021/12/25 09:15:47;;;;;;;12.10;4.43;;;;;;;11.88;55.97;97648.53;4486436;32;20163;-86
2021/12/25 09:18:12;;;;;;;11.27;4.10;;;;;;;11.94;55.92;97645.44;4486333;32;20820;-86
2021/12/25 09:20:38;;;;;;;10.38;4.10;;;;;;;12.00;55.77;97641.47;4486611;32;20395;-85
2021/12/25 09:23:04;;;;;;;10.02;3.83;;;;;;;12.03;55.75;97633.31;4488279;32;20111;-85
2021/12/25 09:25:30;;;;;;;11.32;4.20;;;;;;;12.09;55.66;97635.47;4487418;32;20102;-86
2021/12/25 09:27:56;;;;;;;12.30;4.72;;;;;;;12.11;55.54;97628.28;4488574;32;20420;-86
2021/12/25 09:30:21;;;;;;;10.77;4.25;;;;;;;12.18;55.44;97634.72;4487264;32;20105;-86
2021/12/25 09:32:47;;;;;;;11.02;4.25;;;;;;;12.21;55.39;97623.09;4487205;32;20089;-85
2021/12/25 09:35:13;;;;;;;10.88;3.90;;;;;;;12.29;55.30;97620.69;4486995;32;20088;-86
2021/12/25 09:37:39;;;;;;;11.05;4.25;;;;;;;12.38;55.06;97617.31;4488253;32;20080;-86
2021/12/25 09:40:07;;;;;;;10.00;4.00;;;;;;;12.44;55.09;97623.03;4487916;32;20085;-86
2021/12/25 09:42:33;;;;;;;11.85;4.53;;;;;;;12.49;54.73;97615.59;4487020;32;20165;-86
2021/12/25 09:44:58;;;;;;;11.05;4.87;;;;;;;12.59;54.75;97620.00;4473953;32;20131;-86
2021/12/25 09:47:24;;;;;;;11.23;4.90;;;;;;;12.63;54.83;97622.37;4488329;32;20099;-87
2021/12/25 09:49:49;;;;;;;12.88;4.95;;;;;;;12.65;54.97;97620.47;4473756;32;20116;-86
2021/12/25 09:52:15;;;;;;;11.63;4.70;;;;;;;12.75;54.64;97624.88;4487030;32;20097;-86
2021/12/25 09:54:41;;;;;;;12.82;5.70;;;;;;;12.78;54.15;97619.31;4488088;32;20080;-86
2021/12/25 09:57:06;;;;;;;15.52;7.95;;;;;;;12.87;53.82;97614.25;4488154;32;20116;-86
2021/12/25 09:59:32;;;;;;;14.18;6.10;;;;;;;12.82;54.31;97611.97;4473695;32;20149;-85
2021/12/25 10:02:00;;;;;;;12.52;5.95;;;;;;;12.85;54.38;97597.69;4488136;32;20216;-86
2021/12/25 10:04:34;;;;;;;;;;;;;;;12.87;54.09;97598.41;4488806;32;20107;-86
2021/12/25 10:07:12;;;;;;;17.70;9.68;;;;;;;13.02;54.04;97598.91;4488066;32;19999;-86
2021/12/25 10:09:37;;;;;;;20.08;10.68;;;;;;;12.98;54.54;97616.84;4487868;32;20161;-86
2021/12/25 10:12:05;;;;;;;18.60;9.52;;;;;;;12.94;54.69;97624.19;4488283;32;20360;-86
2021/12/25 10:14:31;;;;;;;;;;;;;;;12.99;54.72;97616.72;4474226;32;20093;-86
2021/12/25 10:16:56;;;;;;;15.50;7.80;;;;;;;13.11;54.57;97621.94;4473786;32;19967;-85
2021/12/25 10:19:26;;;;;;;15.18;7.57;;;;;;;13.14;54.27;97611.12;4487928;32;20126;-86
2021/12/25 10:22:06;;;;;;;16.20;7.90;;;;;;;13.14;54.46;97606.66;4486801;32;20164;-86
2021/12/25 10:24:37;;;;;;;15.00;7.72;;;;;;;13.15;54.10;97608.34;4488057;32;20400;-86
2021/12/25 10:27:16;;;;;;;15.23;7.53;;;;;;;13.17;54.24;97614.34;4487212;32;20072;-85
2021/12/25 10:29:42;;;;;;;18.52;9.35;;;;;;;13.21;54.12;97614.91;4488175;32;20156;-86
2021/12/25 10:32:23;;;;;;;21.40;9.68;;;;;;;13.24;54.38;97614.66;4487981;32;20088;-86
2021/12/25 10:34:49;;;;;;;17.67;8.85;;;;;;;13.05;54.81;97614.53;4487974;32;20490;-86
2021/12/25 10:37:17;;;;;;;16.17;8.05;;;;;;;13.10;54.66;97618.47;4487916;32;20170;-86
2021/12/25 10:39:43;;;;;;;15.73;8.18;;;;;;;13.16;54.59;97617.13;4486684;32;20376;-86
2021/12/25 10:42:17;;;;;;;14.73;7.15;;;;;;;13.28;54.26;97621.38;4487588;32;20498;-85
2021/12/25 10:44:45;;;;;;;12.95;5.90;;;;;;;13.34;53.79;97618.22;4487804;32;20084;-86
2021/12/25 10:47:13;;;;;;;15.10;7.50;;;;;;;13.42;52.55;97608.81;4487748;32;20076;-85
2021/12/25 10:49:46;;;;;;;14.10;7.05;;;;;;;13.35;52.80;97611.97;4487708;32;20096;-86
2021/12/25 10:52:29;;;;;;;15.10;6.90;;;;;;;13.45;53.11;97613.84;4486587;32;20159;-86
2021/12/25 10:55:06;;;;;;;12.98;5.87;;;;;;;13.53;52.98;97608.75;4486422;32;20151;-85
2021/12/25 10:57:43;;;;;;;11.20;4.65;;;;;;;13.61;52.69;97605.44;4487682;32;20099;-86
2021/12/25 11:00:12;;;;;;;13.62;5.03;;;;;;;13.77;52.20;97600.47;4487652;32;20446;-86
2021/12/25 11:02:49;;;;;;;12.40;5.80;;;;;;;13.83;51.41;97597.31;4473391;32;20364;-86
2021/12/25 11:05:25;;;;;;;13.55;5.78;;;;;;;13.88;51.58;97588.97;4487656;32;20084;-86
2021/12/25 11:08:10;;;;;;;12.57;5.55;;;;;;;13.99;51.56;97590.69;4487429;32;20106;-86
2021/12/25 11:10:50;;;;;;;11.25;4.87;;;;;;;14.08;51.24;97585.44;4487028;32;20116;-86
2021/12/25 11:13:23;;;;;;;12.40;5.45;;;;;;;14.15;50.96;97578.59;4473349;32;20108;-86
2021/12/25 11:15:52;;;;;;;14.35;6.70;;;;;;;14.14;51.08;97578.75;4487635;32;20479;-86
2021/12/25 11:18:19;;;;;;;11.93;5.53;;;;;;;14.18;51.09;97580.16;4487413;32;20096;-86
2021/12/25 11:20:46;;;;;;;12.35;5.15;;;;;;;14.26;51.02;97574.16;4487446;32;20088;-86
2021/12/25 11:23:13;;;;;;;12.63;5.93;;;;;;;14.20;50.94;97572.91;4487417;32;20475;-86
2021/12/25 11:25:40;;;;;;;13.13;6.22;;;;;;;14.02;51.49;97569.22;4487444;32;20115;-86
2021/12/25 11:28:09;;;;;;;12.43;5.73;;;;;;;14.14;51.40;97554.91;4487487;32;20108;-86
2021/12/25 11:30:39;;;;;;;18.65;8.98;;;;;;;14.15;51.43;97551.28;4473262;32;20196;-85
2021/12/25 11:33:04;;;;;;;22.20;12.15;;;;;;;14.20;51.79;97554.37;4486362;32;20483;-85
2021/12/25 11:35:34;;;;;;;23.17;12.07;;;;;;;14.25;51.76;97551.28;4487335;32;20114;-86
2021/12/25 11:38:00;;;;;;;22.27;12.07;;;;;;;14.18;51.71;97548.38;4473394;32;20076;-85
2021/12/25 11:40:27;;;;;;;22.60;11.48;;;;;;;14.10;51.94;97540.25;4487157;32;20169;-86
2021/12/25 11:42:56;;;;;;;24.10;11.57;;;;;;;14.09;51.89;97536.78;4488373;32;20584;-85
2021/12/25 11:45:29;;;;;;;21.52;12.55;;;;;;;14.03;51.99;97534.66;4487176;32;20114;-85
2021/12/25 11:47:58;;;;;;;20.02;11.57;;;;;;;14.03;51.94;97531.19;4487556;32;20077;-85
2021/12/25 11:50:24;;;;;;;18.67;10.65;;;;;;;13.96;52.03;97529.09;4486167;32;20134;-85
2021/12/25 11:53:06;;;;;;;20.23;11.15;;;;;;;13.92;51.80;97532.13;4472937;32;20104;-86
2021/12/25 11:58:25;;;;;;;18.08;9.73;;;;;;;13.85;52.02;97529.19;4473685;32;20189;-85
2021/12/25 12:00:51;;;;;;;17.23;8.45;;;;;;;13.92;51.98;97510.94;4487232;32;20104;-85
2021/12/25 12:03:41;;;;;;;16.85;8.75;;;;;;;13.89;51.90;97522.66;4487174;32;20144;-86
2021/12/25 12:06:07;;;;;;;19.58;9.90;;;;;;;13.89;51.95;97514.72;4473460;32;20128;-85
2021/12/25 12:08:55;;;;;;;17.73;8.65;;;;;;;13.89;52.01;97514.72;4485981;32;20087;-87
2021/12/25 12:11:22;;;;;;;18.75;9.65;;;;;;;13.95;51.70;97518.63;4487041;32;20152;-85
2021/12/25 12:13:48;;;;;;;18.83;10.57;;;;;;;13.91;51.79;97517.22;4487206;32;20444;-85
2021/12/25 12:16:13;;;;;;;22.33;10.82;;;;;;;13.88;51.96;97526.25;4485732;32;20106;-85
2021/12/25 12:18:40;;;;;;;22.75;12.73;;;;;;;13.86;51.95;97537.97;4472524;32;20080;-85
2021/12/25 12:21:18;;;;;;;23.15;12.98;;;;;;;13.79;52.24;97536.81;4472801;32;20096;-86
2021/12/25 12:27:02;;;;;;;23.23;12.25;;;;;;;13.69;52.29;97534.97;4487119;32;20085;-86
2021/12/25 12:29:37;;;;;;;18.30;10.18;;;;;;;13.63;52.71;97526.75;4484579;32;20065;-85
2021/12/25 12:32:03;;;;;;;20.50;10.98;;;;;;;13.23;53.24;97532.81;4472708;32;20127;-86
2021/12/25 12:34:34;;;;;;;20.37;11.10;;;;;;;13.50;52.93;97529.63;4472684;32;20388;-86
2021/12/25 12:37:15;;;;;;;19.75;11.88;;;;;;;13.52;52.93;97531.19;4472635;32;20395;-85
2021/12/25 12:39:42;;;;;;;21.35;11.90;;;;;;;13.53;52.79;97524.91;4472490;32;20171;-86
2021/12/25 12:42:11;;;;;;;21.87;13.32;;;;;;;13.49;53.17;97536.72;4486789;32;20085;-86
2021/12/25 12:44:37;;;;;;;24.90;14.35;;;;;;;13.50;52.86;97532.25;4486891;32;20096;-86